Time;durP1;ratioP1;P1;durP2;ratioP2;P2;SDS_P1;SDS_P2;PMS_P1;PMS_P2;Temp;Humidity;BMP_temperature;BMP_pressure;BME280_temperature;BME280_humidity;BME280_pressure;Samples;Min_cycle;Max_cycle;Signal;HPM_P1;HPM_P2
2023/05/05 00:01:17;;;;;;;10.93;3.43;;;;;;;10.47;69.84;101503.25;4983108;28;20730;-81
2023/05/05 00:03:46;;;;;;;5.03;3.40;;;;;;;10.46;69.72;101499.69;4983529;28;20476;-81
2023/05/05 00:06:16;;;;;;;6.35;4.13;;;;;;;10.49;69.66;101505.78;4989295;28;20193;-81
2023/05/05 00:08:48;;;;;;;5.15;3.55;;;;;;;10.41;69.87;101501.28;4974881;28;20269;-82
2023/05/05 00:11:17;;;;;;;7.10;4.10;;;;;;;10.41;69.93;101501.28;4979195;28;20194;-81
2023/05/05 00:13:47;;;;;;;6.50;3.63;;;;;;;10.39;69.91;101496.06;4978734;28;20455;-82
2023/05/05 00:16:17;;;;;;;6.65;3.95;;;;;;;10.36;70.15;101495.63;4984477;28;20260;-82
2023/05/05 00:18:46;;;;;;;8.00;3.90;;;;;;;10.29;70.53;101500.06;4982719;28;20199;-80
2023/05/05 00:21:16;;;;;;;10.10;4.53;;;;;;;10.33;70.44;101493.25;4991174;28;20204;-81
2023/05/05 00:23:45;;;;;;;7.67;3.23;;;;;;;10.36;70.05;101491.00;4975261;28;20220;-82
2023/05/05 00:26:14;;;;;;;5.45;3.35;;;;;;;10.31;70.53;101498.03;4986898;28;20613;-81
2023/05/05 00:28:51;;;;;;;7.00;4.33;;;;;;;10.30;70.34;101486.38;4991584;28;20201;-79
2023/05/05 00:31:21;;;;;;;5.50;3.60;;;;;;;10.29;70.44;101489.25;4987775;28;20454;-82
2023/05/05 00:33:51;;;;;;;7.97;3.93;;;;;;;10.32;70.17;101486.16;4982121;28;21011;-82
2023/05/05 00:36:21;;;;;;;10.77;3.50;;;;;;;10.25;70.30;101480.69;4991863;28;20475;-80
2023/05/05 00:38:51;;;;;;;8.75;3.78;;;;;;;10.26;70.58;101478.81;4992181;28;20221;-80
2023/05/05 00:41:21;;;;;;;8.50;3.97;;;;;;;10.23;70.64;101479.16;4990737;28;20396;-80
2023/05/05 00:43:52;;;;;;;7.35;3.97;;;;;;;10.19;70.60;101477.88;4989893;28;20189;-78
2023/05/05 00:46:25;;;;;;;4.70;3.28;;;;;;;10.18;70.81;101481.59;4976355;28;20213;-80
2023/05/05 00:48:58;;;;;;;4.97;3.65;;;;;;;10.16;70.89;101479.09;4981060;28;20696;-80
2023/05/05 00:51:30;;;;;;;7.93;4.47;;;;;;;10.18;70.84;101470.75;4983469;28;20207;-80
2023/05/05 00:54:00;;;;;;;5.55;4.00;;;;;;;10.15;70.92;101476.53;4991929;28;20192;-81
2023/05/05 00:56:30;;;;;;;10.52;3.47;;;;;;;10.13;70.86;101467.75;4988751;28;20212;-81
2023/05/05 00:59:02;;;;;;;5.45;3.40;;;;;;;10.08;71.18;101470.16;4992538;28;20229;-80
2023/05/05 01:01:33;;;;;;;9.02;3.17;;;;;;;10.00;71.52;101474.66;4985159;28;20264;-80
2023/05/05 01:04:03;;;;;;;14.65;4.40;;;;;;;9.97;71.49;101471.47;4969279;28;20309;-80
2023/05/05 01:06:46;;;;;;;3.67;3.35;;;;;;;10.00;71.26;101465.69;4968323;28;20197;-82
2023/05/05 01:09:25;;;;;;;7.00;3.25;;;;;;;9.94;71.97;101464.56;4976769;28;20225;-82
2023/05/05 01:12:01;;;;;;;6.80;4.63;;;;;;;9.88;71.95;101470.69;4976404;28;20206;-82
2023/05/05 01:14:39;;;;;;;5.10;3.72;;;;;;;9.77;72.56;101465.75;4983856;28;20245;-82
2023/05/05 01:17:17;;;;;;;6.35;3.97;;;;;;;9.82;72.26;101471.44;4975999;28;20199;-82
2023/05/05 01:20:15;;;;;;;7.43;3.20;;;;;;;9.78;72.62;101472.00;5002641;28;20258;-80
2023/05/05 01:22:51;;;;;;;14.68;4.18;;;;;;;9.76;72.72;101472.16;4982328;28;20237;-82
2023/05/05 01:25:49;;;;;;;8.38;4.40;;;;;;;9.73;72.94;101466.31;4973379;28;20200;-79
2023/05/05 01:28:38;;;;;;;5.70;3.75;;;;;;;9.68;73.03;101468.72;4955223;28;20219;-82
2023/05/05 01:31:17;;;;;;;4.25;3.90;;;;;;;9.68;72.98;101463.31;4967219;28;20226;-82
2023/05/05 01:33:52;;;;;;;9.73;4.97;;;;;;;9.62;73.38;101464.88;4979300;28;20193;-80
2023/05/05 01:36:28;;;;;;;6.63;3.60;;;;;;;9.62;73.46;101459.47;4969966;28;20300;-81
2023/05/05 01:39:02;;;;;;;9.48;4.53;;;;;;;9.54;73.75;101464.91;4973581;28;20228;-82
2023/05/05 01:41:38;;;;;;;5.85;3.90;;;;;;;9.50;74.17;101463.59;4964254;28;20233;-83
2023/05/05 01:44:10;;;;;;;7.07;4.15;;;;;;;9.46;74.10;101462.28;4984246;28;20198;-81
2023/05/05 01:46:39;;;;;;;7.35;3.90;;;;;;;9.47;74.33;101469.38;4983409;28;20205;-81
2023/05/05 01:49:11;;;;;;;7.75;3.88;;;;;;;9.41;74.69;101467.41;4980114;28;20250;-82
2023/05/05 01:51:41;;;;;;;5.90;3.10;;;;;;;9.40;74.76;101460.31;4982491;28;20208;-81
2023/05/05 01:54:12;;;;;;;5.10;4.05;;;;;;;9.34;74.96;101461.06;4971035;28;20707;-82
2023/05/05 01:56:43;;;;;;;4.50;3.55;;;;;;;9.28;74.99;101472.56;4975484;28;20610;-81
2023/05/05 01:59:13;;;;;;;4.00;3.25;;;;;;;9.35;74.66;101454.59;4977750;28;20262;-83
2023/05/05 02:01:46;;;;;;;8.95;3.80;;;;;;;9.27;75.05;101460.06;4974532;28;20200;-82
2023/05/05 02:04:21;;;;;;;9.73;3.88;;;;;;;9.31;74.93;101456.00;4974720;28;20229;-80
2023/05/05 02:06:53;;;;;;;6.93;3.83;;;;;;;9.24;75.11;101455.03;4982767;28;20287;-81
2023/05/05 02:09:25;;;;;;;6.35;3.65;;;;;;;9.20;75.41;101453.72;4974474;28;20232;-81
2023/05/05 02:11:55;;;;;;;6.85;4.53;;;;;;;9.20;75.30;101454.53;4979560;28;20209;-81
2023/05/05 02:14:29;;;;;;;3.90;3.50;;;;;;;9.19;75.22;101452.88;4970304;28;20239;-81
2023/05/05 02:17:00;;;;;;;5.45;3.70;;;;;;;9.13;75.56;101449.03;4967737;28;20828;-81
2023/05/05 02:19:36;;;;;;;8.00;3.97;;;;;;;9.05;75.95;101446.38;4969629;28;20312;-79
2023/05/05 02:22:05;;;;;;;10.38;3.88;;;;;;;9.08;75.69;101445.19;4976966;28;20220;-81
2023/05/05 02:24:35;;;;;;;3.97;2.75;;;;;;;9.08;75.78;101451.44;4982150;28;20205;-82
2023/05/05 02:27:08;;;;;;;12.25;4.53;;;;;;;9.08;75.60;101454.13;4994317;28;20277;-82
2023/05/05 02:29:44;;;;;;;7.15;4.00;;;;;;;9.13;75.66;101454.44;4985639;28;20208;-82
2023/05/05 02:32:19;;;;;;;9.50;4.15;;;;;;;9.11;75.43;101445.66;4979695;28;20300;-82
2023/05/05 02:34:53;;;;;;;6.30;4.18;;;;;;;9.09;75.46;101453.13;4976356;28;20248;-82
2023/05/05 02:37:27;;;;;;;13.95;3.72;;;;;;;9.07;75.64;101444.34;4976773;28;20208;-81
2023/05/05 02:40:03;;;;;;;9.60;3.65;;;;;;;9.05;75.73;101450.97;4985549;28;20475;-80
2023/05/05 02:42:37;;;;;;;4.32;3.75;;;;;;;8.97;76.13;101442.91;4974201;28;20211;-82
2023/05/05 02:45:14;;;;;;;6.07;3.92;;;;;;;8.89;76.43;101451.06;4982506;28;20254;-80
2023/05/05 02:47:46;;;;;;;13.50;4.55;;;;;;;8.96;76.00;101447.44;4982955;28;20212;-82
2023/05/05 02:50:18;;;;;;;10.90;4.45;;;;;;;8.97;75.87;101445.59;4977693;28;20232;-82
2023/05/05 02:52:56;;;;;;;7.68;3.83;;;;;;;9.00;75.77;101447.97;4992952;28;20207;-82
2023/05/05 02:55:31;;;;;;;7.00;3.95;;;;;;;8.92;76.16;101438.03;4983343;28;20205;-80
2023/05/05 02:58:06;;;;;;;9.68;3.83;;;;;;;8.90;76.23;101447.34;4977249;28;20282;-81
2023/05/05 03:00:48;;;;;;;6.43;4.40;;;;;;;8.88;76.12;101454.75;4981658;28;20217;-82
2023/05/05 03:03:25;;;;;;;5.30;4.18;;;;;;;8.91;76.12;101449.00;4973500;28;20208;-81
2023/05/05 03:06:07;;;;;;;6.38;4.43;;;;;;;8.83;76.12;101447.19;4963547;28;20202;-82
2023/05/05 03:08:43;;;;;;;5.88;4.05;;;;;;;8.81;76.38;101446.53;4973076;28;20270;-80
2023/05/05 03:11:22;;;;;;;7.50;5.55;;;;;;;8.83;76.23;101449.91;4969737;28;20289;-84
2023/05/05 03:13:56;;;;;;;6.93;4.18;;;;;;;8.84;76.36;101456.97;4971722;28;20278;-82
2023/05/05 03:16:26;;;;;;;11.18;3.95;;;;;;;8.85;75.96;101445.19;4982120;28;20256;-81
2023/05/05 03:18:57;;;;;;;6.50;3.90;;;;;;;8.84;76.05;101443.50;4975185;28;20597;-81
2023/05/05 03:21:29;;;;;;;14.85;3.20;;;;;;;8.82;75.95;101444.66;4981705;28;20216;-80
2023/05/05 03:23:59;;;;;;;7.60;4.20;;;;;;;8.85;75.87;101444.34;4997397;28;20211;-82
2023/05/05 03:26:29;;;;;;;6.65;3.67;;;;;;;8.86;75.59;101436.03;4989536;28;20211;-82
2023/05/05 03:28:58;;;;;;;7.70;4.10;;;;;;;8.86;75.51;101440.63;4991593;28;20216;-83
2023/05/05 03:31:32;;;;;;;7.20;4.38;;;;;;;8.90;75.29;101436.53;4978053;28;20287;-82
2023/05/05 03:34:03;;;;;;;5.72;4.30;;;;;;;8.86;75.41;101446.03;4977631;28;20261;-82
2023/05/05 03:36:40;;;;;;;6.18;3.60;;;;;;;8.76;75.83;101451.63;4997894;28;20232;-80
2023/05/05 03:39:12;;;;;;;6.63;3.80;;;;;;;8.78;75.73;101451.44;4981990;28;20230;-82
2023/05/05 03:41:42;;;;;;;8.60;3.40;;;;;;;8.76;75.70;101451.63;4982729;28;20202;-82
2023/05/05 03:44:12;;;;;;;5.32;4.38;;;;;;;8.74;75.66;101459.06;4981556;28;20209;-81
2023/05/05 03:46:42;;;;;;;5.22;3.88;;;;;;;8.81;75.54;101449.22;4973628;28;20216;-82
2023/05/05 03:49:14;;;;;;;7.22;3.92;;;;;;;8.82;75.52;101450.06;4975333;28;20707;-81
2023/05/05 03:51:47;;;;;;;5.72;3.95;;;;;;;8.80;75.48;101447.56;4965232;28;20200;-82
2023/05/05 03:54:16;;;;;;;11.63;4.15;;;;;;;8.79;75.42;101448.56;4981444;28;20676;-83
2023/05/05 03:56:46;;;;;;;11.40;4.30;;;;;;;8.74;75.61;101442.88;4982291;28;20228;-82
2023/05/05 03:59:16;;;;;;;6.40;3.95;;;;;;;8.77;75.56;101447.91;4976277;28;20229;-80
2023/05/05 04:01:47;;;;;;;7.32;4.07;;;;;;;8.83;75.17;101444.50;4982111;28;20194;-82
2023/05/05 04:04:18;;;;;;;8.75;3.67;;;;;;;8.81;75.22;101441.13;4977369;28;20224;-82
2023/05/05 04:06:50;;;;;;;5.65;4.30;;;;;;;8.84;75.30;101440.78;4966632;28;20230;-81
2023/05/05 04:09:20;;;;;;;6.90;4.18;;;;;;;8.99;74.35;101436.31;4981447;28;20229;-80
2023/05/05 04:11:50;;;;;;;4.30;3.97;;;;;;;9.23;73.50;101432.59;4992334;28;20192;-80
2023/05/05 04:14:20;;;;;;;6.75;3.90;;;;;;;9.85;71.10;101444.03;4986787;28;20203;-82
2023/05/05 04:16:50;;;;;;;9.38;4.05;;;;;;;9.95;69.87;101439.22;4976495;28;20201;-82
2023/05/05 04:19:19;;;;;;;7.63;4.60;;;;;;;10.08;69.27;101443.97;4973830;28;20734;-81
2023/05/05 04:21:50;;;;;;;5.60;4.22;;;;;;;9.92;69.65;101444.16;4973862;28;20224;-82
2023/05/05 04:24:23;;;;;;;5.95;3.95;;;;;;;10.29;68.60;101444.09;4979424;28;20216;-80
2023/05/05 04:26:55;;;;;;;6.85;4.82;;;;;;;10.48;67.61;101439.13;4981448;28;20220;-81
2023/05/05 04:29:24;;;;;;;15.60;4.35;;;;;;;11.62;63.65;101447.25;4983698;28;20226;-82
2023/05/05 04:31:54;;;;;;;13.27;4.30;;;;;;;12.17;60.76;101449.16;4985066;28;20554;-82
2023/05/05 04:34:24;;;;;;;8.75;3.95;;;;;;;12.86;58.29;101446.38;4970347;28;20197;-79
2023/05/05 04:36:55;;;;;;;6.53;4.10;;;;;;;13.40;56.22;101451.75;4979609;28;20203;-82
2023/05/05 04:39:25;;;;;;;7.87;4.10;;;;;;;13.25;56.10;101456.53;4971026;28;20445;-81
2023/05/05 04:41:55;;;;;;;4.90;3.77;;;;;;;13.09;56.83;101455.00;4987501;28;20528;-78
2023/05/05 04:44:24;;;;;;;10.37;4.43;;;;;;;13.21;55.95;101453.41;4968677;28;20441;-82
2023/05/05 04:46:55;;;;;;;9.30;4.83;;;;;;;13.79;54.56;101461.84;4985579;28;20435;-80
2023/05/05 04:49:25;;;;;;;9.47;5.63;;;;;;;13.46;55.23;101461.78;4976236;28;20519;-80
2023/05/05 04:51:55;;;;;;;7.80;4.83;;;;;;;12.58;56.97;101468.19;4978961;28;20455;-82
2023/05/05 04:54:28;;;;;;;9.27;5.50;;;;;;;11.66;60.30;101472.97;4978299;28;20433;-82
2023/05/05 04:56:58;;;;;;;7.33;4.60;;;;;;;12.15;59.58;101478.38;4979158;28;20479;-82
2023/05/05 04:59:28;;;;;;;13.03;5.43;;;;;;;13.07;56.61;101470.66;4982646;28;20458;-81
2023/05/05 05:01:57;;;;;;;7.37;4.50;;;;;;;12.29;58.26;101477.44;4976987;28;20412;-79
2023/05/05 05:04:27;;;;;;;13.00;5.10;;;;;;;11.55;60.81;101477.03;4975411;28;20481;-82
2023/05/05 05:06:58;;;;;;;10.87;4.97;;;;;;;11.75;60.67;101479.94;4972991;28;20458;-81
2023/05/05 05:09:29;;;;;;;8.10;4.43;;;;;;;12.11;59.44;101487.94;4970490;28;20577;-83
2023/05/05 05:12:01;;;;;;;9.73;4.40;;;;;;;12.58;57.96;101490.75;4977003;28;20967;-81
2023/05/05 05:14:36;;;;;;;7.63;4.07;;;;;;;13.68;54.98;101481.47;4984938;28;20432;-82
2023/05/05 05:17:05;;;;;;;7.23;5.20;;;;;;;14.22;52.41;101479.38;4972738;28;20443;-81
2023/05/05 05:19:35;;;;;;;7.73;4.53;;;;;;;13.01;55.47;101491.38;4964422;28;20968;-81
2023/05/05 05:22:06;;;;;;;5.80;4.07;;;;;;;12.19;58.33;101485.94;4987235;28;20465;-82
2023/05/05 05:24:39;;;;;;;10.93;4.23;;;;;;;11.71;60.35;101487.56;4982387;28;20544;-81
2023/05/05 05:27:09;;;;;;;5.97;4.83;;;;;;;11.38;61.48;101493.72;4992726;28;20404;-82
2023/05/05 05:29:42;;;;;;;8.80;4.10;;;;;;;11.21;62.07;101485.84;4989508;28;20458;-81
2023/05/05 05:32:11;;;;;;;7.53;4.37;;;;;;;11.18;62.61;101485.41;4983977;28;20528;-81
2023/05/05 05:34:41;;;;;;;7.70;5.03;;;;;;;11.07;63.08;101484.03;4981152;28;20756;-80
2023/05/05 05:37:13;;;;;;;18.13;6.00;;;;;;;11.46;61.91;101488.19;4977246;28;20957;-81
2023/05/05 05:39:42;;;;;;;11.13;4.63;;;;;;;11.75;60.76;101491.63;4971511;28;20451;-82
2023/05/05 05:42:12;;;;;;;16.23;4.53;;;;;;;11.83;59.90;101489.78;4979382;28;20500;-79
2023/05/05 05:44:42;;;;;;;6.70;4.80;;;;;;;11.84;59.68;101491.47;4970569;28;20538;-81
2023/05/05 05:47:11;;;;;;;6.80;5.77;;;;;;;11.81;59.68;101486.47;4975614;28;20450;-82
2023/05/05 05:49:40;;;;;;;8.20;4.80;;;;;;;12.00;59.27;101492.03;4972117;28;20457;-82
2023/05/05 05:52:11;;;;;;;8.13;4.97;;;;;;;12.23;58.34;101491.78;5004939;23;20986;-80
2023/05/05 05:54:42;;;;;;;13.93;6.47;;;;;;;12.40;57.58;101486.88;5001243;28;20430;-81
2023/05/05 05:57:12;;;;;;;7.60;4.23;;;;;;;12.18;57.39;101489.66;4997603;28;20427;-81
2023/05/05 05:59:41;;;;;;;7.00;5.37;;;;;;;12.02;57.60;101494.53;5003588;28;20427;-81
2023/05/05 06:02:15;;;;;;;9.83;5.50;;;;;;;12.00;57.43;101492.03;5010309;28;20840;-80
2023/05/05 06:04:45;;;;;;;10.53;4.33;;;;;;;12.15;57.08;101489.25;5007841;28;20871;-80
2023/05/05 06:07:16;;;;;;;10.00;4.47;;;;;;;12.64;55.92;101492.66;4986192;28;20433;-81
2023/05/05 06:09:46;;;;;;;8.93;4.90;;;;;;;13.00;54.83;101491.56;4982363;28;20484;-83
2023/05/05 06:12:16;;;;;;;5.57;4.83;;;;;;;13.01;54.28;101487.81;4984817;28;20466;-83
2023/05/05 06:14:45;;;;;;;9.37;5.13;;;;;;;12.84;54.46;101486.47;5004717;28;21217;-81
2023/05/05 06:17:15;;;;;;;11.70;5.60;;;;;;;12.57;54.56;101489.06;5011140;28;20421;-78
2023/05/05 06:19:44;;;;;;;10.10;5.33;;;;;;;12.48;55.09;101486.72;4997669;28;20447;-80
2023/05/05 06:22:20;;;;;;;9.40;5.43;;;;;;;12.49;54.80;101489.22;5001936;28;20449;-79
2023/05/05 06:24:53;;;;;;;7.57;4.67;;;;;;;12.54;55.05;101486.75;4989668;28;20480;-79
2023/05/05 06:27:23;;;;;;;5.80;4.17;;;;;;;12.38;55.35;101486.25;5010337;28;20487;-80
2023/05/05 06:29:52;;;;;;;8.67;5.73;;;;;;;12.45;55.16;101490.66;5012557;28;20512;-80
2023/05/05 06:32:22;;;;;;;9.80;4.73;;;;;;;12.60;55.22;101491.38;5007135;28;20423;-79
2023/05/05 06:34:51;;;;;;;6.33;5.37;;;;;;;12.74;55.24;101491.44;5001648;28;20449;-79
2023/05/05 06:37:21;;;;;;;6.97;4.77;;;;;;;12.95;55.00;101496.75;5008607;28;20422;-82
2023/05/05 06:39:51;;;;;;;9.50;4.50;;;;;;;13.07;54.31;101492.41;4996328;28;20463;-80
2023/05/05 06:42:20;;;;;;;12.87;6.07;;;;;;;13.20;53.96;101497.09;4998958;28;20461;-82
2023/05/05 06:44:50;;;;;;;7.93;4.70;;;;;;;13.46;52.58;101499.84;5010804;28;20453;-82
2023/05/05 06:47:19;;;;;;;7.73;4.87;;;;;;;13.32;52.63;101500.88;4990405;28;20537;-82
2023/05/05 06:49:48;;;;;;;10.07;4.40;;;;;;;13.39;52.62;101499.84;4994165;28;20432;-80
2023/05/05 06:52:17;;;;;;;7.33;5.00;;;;;;;13.54;52.43;101498.84;4996320;28;21103;-82
2023/05/05 06:54:48;;;;;;;5.40;4.10;;;;;;;13.83;51.88;101498.44;4991683;28;20807;-83
2023/05/05 06:57:17;;;;;;;13.47;5.80;;;;;;;13.90;51.45;101491.94;4994788;28;20506;-80
2023/05/05 06:59:46;;;;;;;6.53;5.00;;;;;;;13.69;51.59;101496.78;4993884;28;20416;-85
2023/05/05 07:02:17;;;;;;;8.67;5.07;;;;;;;13.90;51.88;101496.53;5002430;28;20440;-81
2023/05/05 07:04:46;;;;;;;8.37;4.57;;;;;;;14.29;50.77;101501.13;4996395;28;20449;-81
2023/05/05 07:07:15;;;;;;;5.40;4.33;;;;;;;14.53;50.11;101502.34;5004022;28;20444;-82
2023/05/05 07:09:45;;;;;;;6.67;4.70;;;;;;;14.29;50.35;101499.25;4996786;28;20451;-84
2023/05/05 07:12:15;;;;;;;14.10;6.40;;;;;;;14.37;50.36;101498.22;4987385;28;20562;-83
2023/05/05 07:14:46;;;;;;;9.93;4.43;;;;;;;14.27;50.06;101495.91;4991812;28;20815;-82
2023/05/05 07:17:15;;;;;;;10.93;4.17;;;;;;;14.13;50.76;101504.31;4998783;28;20410;-82
2023/05/05 07:19:44;;;;;;;10.97;5.03;;;;;;;13.90;51.43;101502.00;4986258;28;20478;-81
2023/05/05 07:22:14;;;;;;;7.30;4.23;;;;;;;14.02;51.26;101500.31;4993830;28;20497;-82
2023/05/05 07:24:43;;;;;;;7.20;4.47;;;;;;;13.85;50.96;101509.94;5016197;28;20414;-80
2023/05/05 07:27:14;;;;;;;17.07;6.10;;;;;;;13.94;51.10;101506.00;5027054;28;20447;-80
2023/05/05 07:29:43;;;;;;;15.50;5.33;;;;;;;14.10;50.75;101504.72;5018792;28;20416;-79
2023/05/05 07:32:12;;;;;;;7.43;5.13;;;;;;;14.07;50.75;101513.31;5018262;28;20440;-80
2023/05/05 07:34:42;;;;;;;8.77;5.47;;;;;;;14.11;50.76;101511.84;4996438;28;20401;-83
2023/05/05 07:37:11;;;;;;;13.57;6.33;;;;;;;14.19;50.73;101517.88;5010206;28;20902;-82
2023/05/05 07:39:40;;;;;;;15.03;5.50;;;;;;;14.19;50.52;101525.22;4998066;28;20500;-81
2023/05/05 07:42:09;;;;;;;18.63;5.97;;;;;;;14.01;50.97;101514.97;4992849;28;20434;-81
2023/05/05 07:44:40;;;;;;;7.67;4.80;;;;;;;13.89;51.41;101527.53;4989759;28;20453;-81
2023/05/05 07:47:09;;;;;;;9.23;4.80;;;;;;;14.18;50.93;101527.13;4984537;28;20515;-79
2023/05/05 07:49:38;;;;;;;8.37;5.00;;;;;;;14.21;50.37;101525.84;4990904;28;20433;-80
2023/05/05 07:52:07;;;;;;;6.83;5.07;;;;;;;14.33;50.17;101522.25;4982460;28;20441;-79
2023/05/05 07:54:36;;;;;;;11.27;5.20;;;;;;;14.41;50.09;101525.88;4989913;28;20427;-79
2023/05/05 07:57:05;;;;;;;10.20;5.77;;;;;;;14.67;49.37;101520.34;4992290;28;20924;-77
2023/05/05 07:59:34;;;;;;;22.67;5.67;;;;;;;14.83;49.39;101516.31;4990535;28;20426;-78
2023/05/05 08:02:05;;;;;;;8.87;5.60;;;;;;;14.65;49.80;101525.19;4989659;28;20820;-78
2023/05/05 08:04:34;;;;;;;8.10;5.30;;;;;;;14.93;49.85;101525.72;4980141;28;20759;-80
2023/05/05 08:07:03;;;;;;;7.17;4.90;;;;;;;15.21;49.32;101515.31;4998040;28;20956;-81
2023/05/05 08:09:34;;;;;;;12.33;6.17;;;;;;;15.46;48.91;101518.09;4982086;28;20836;-79
2023/05/05 08:12:03;;;;;;;10.07;5.93;;;;;;;15.19;48.47;101522.88;4981864;28;20828;-79
2023/05/05 08:14:32;;;;;;;9.00;5.03;;;;;;;15.01;48.90;101513.72;5005588;28;20427;-78
2023/05/05 08:17:01;;;;;;;6.97;5.00;;;;;;;15.14;48.21;101514.53;4995482;28;20564;-80
2023/05/05 08:19:32;;;;;;;7.50;5.50;;;;;;;15.10;48.32;101509.72;4998329;28;20436;-80
2023/05/05 08:22:01;;;;;;;15.37;5.63;;;;;;;15.20;48.55;101500.00;5011471;28;20529;-79
2023/05/05 08:24:30;;;;;;;11.43;5.50;;;;;;;14.95;48.62;101490.91;4986850;28;20443;-79
2023/05/05 08:27:00;;;;;;;12.00;6.60;;;;;;;15.29;48.40;101502.50;4998071;28;20961;-80
2023/05/05 08:29:29;;;;;;;6.77;5.27;;;;;;;15.34;48.41;101500.78;5014377;28;20385;-77
2023/05/05 08:31:58;;;;;;;6.03;4.70;;;;;;;15.51;47.75;101488.31;5010070;28;20427;-80
2023/05/05 08:34:27;;;;;;;10.70;5.13;;;;;;;15.52;47.88;101494.63;4988426;28;20456;-81
2023/05/05 08:36:58;;;;;;;15.57;5.60;;;;;;;15.89;47.40;101499.16;4990905;28;20411;-80
2023/05/05 08:39:27;;;;;;;7.30;6.23;;;;;;;16.20;46.35;101502.88;4991205;28;20411;-80
2023/05/05 08:41:56;;;;;;;9.17;5.77;;;;;;;16.34;46.56;101499.78;4995878;28;20442;-79
2023/05/05 08:44:27;;;;;;;7.67;6.13;;;;;;;16.46;45.67;101503.44;4986221;28;20412;-79
2023/05/05 08:46:58;;;;;;;13.20;5.70;;;;;;;16.28;46.06;101503.41;4992917;28;20631;-80
2023/05/05 08:49:31;;;;;;;9.47;6.00;;;;;;;16.38;46.26;101494.72;4995567;28;20504;-79
2023/05/05 08:52:05;;;;;;;15.33;6.17;;;;;;;16.66;45.35;101492.31;4998331;28;20854;-79
2023/05/05 08:54:38;;;;;;;9.27;6.17;;;;;;;16.66;45.29;101494.22;4993006;28;20437;-81
2023/05/05 08:57:10;;;;;;;11.63;5.70;;;;;;;16.85;44.78;101509.53;4985651;28;20456;-80
2023/05/05 08:59:40;;;;;;;10.00;6.73;;;;;;;16.87;44.68;101501.97;4997152;28;20445;-81
2023/05/05 09:02:11;;;;;;;9.03;6.43;;;;;;;17.04;44.69;101502.19;5004439;28;20426;-78
2023/05/05 09:04:41;;;;;;;9.60;5.63;;;;;;;17.32;44.22;101505.16;4992263;28;20422;-80
2023/05/05 09:07:12;;;;;;;12.03;6.83;;;;;;;17.23;44.32;101501.91;4985580;28;20441;-79
2023/05/05 09:09:41;;;;;;;18.47;7.37;;;;;;;17.45;43.93;101491.28;4997535;28;20437;-79
2023/05/05 09:12:10;;;;;;;17.17;5.90;;;;;;;17.47;44.30;101491.91;5008602;28;20460;-78
2023/05/05 09:14:40;;;;;;;8.00;5.80;;;;;;;17.61;44.09;101504.34;5002883;28;20440;-80
2023/05/05 09:17:23;;;;;;;7.20;5.60;;;;;;;17.12;44.89;101493.66;5002574;28;20419;-80
2023/05/05 09:20:07;;;;;;;17.23;6.20;;;;;;;17.38;44.50;101498.75;4986691;28;20417;-78
2023/05/05 09:22:39;;;;;;;12.03;8.00;;;;;;;17.53;44.34;101490.94;4989345;28;20461;-79
2023/05/05 09:25:11;;;;;;;9.10;5.37;;;;;;;17.75;44.23;101488.56;4984553;28;20448;-78
2023/05/05 09:27:42;;;;;;;10.43;5.47;;;;;;;17.87;43.39;101496.78;4993473;28;20861;-80
2023/05/05 09:30:14;;;;;;;11.10;5.20;;;;;;;17.47;43.89;101497.38;4993875;28;20941;-79
2023/05/05 09:32:47;;;;;;;7.40;5.20;;;;;;;17.39;44.51;101489.47;4990434;28;20495;-80
2023/05/05 09:35:17;;;;;;;15.07;5.50;;;;;;;17.52;44.68;101483.84;4985531;28;20440;-79
2023/05/05 09:37:49;;;;;;;7.00;5.60;;;;;;;17.58;44.39;101493.81;4986259;28;20464;-80
2023/05/05 09:40:19;;;;;;;14.30;5.63;;;;;;;17.56;44.61;101489.66;4986618;28;20489;-80
2023/05/05 09:42:48;;;;;;;9.80;4.90;;;;;;;17.66;44.36;101479.84;4980220;28;20534;-80
2023/05/05 09:45:27;;;;;;;8.37;5.30;;;;;;;17.69;44.40;101479.38;4990684;28;20415;-79
2023/05/05 09:47:57;;;;;;;9.43;6.10;;;;;;;17.99;43.65;101481.19;4985907;28;20442;-79
2023/05/05 09:50:31;;;;;;;9.50;5.50;;;;;;;18.25;42.93;101489.78;4995293;28;20420;-79
2023/05/05 09:53:03;;;;;;;14.10;5.37;;;;;;;17.98;43.15;101485.00;4995871;28;21093;-80
2023/05/05 09:55:32;;;;;;;7.63;5.47;;;;;;;17.71;43.52;101488.19;4995176;28;20791;-78
2023/05/05 09:58:17;;;;;;;9.57;6.10;;;;;;;17.86;43.33;101493.22;4999833;28;20434;-78
2023/05/05 10:00:47;;;;;;;8.43;4.80;;;;;;;17.87;43.33;101496.78;4996552;28;20464;-79
2023/05/05 10:03:16;;;;;;;8.37;5.80;;;;;;;18.03;42.88;101496.09;5005563;28;20417;-79
2023/05/05 10:05:50;;;;;;;8.50;5.10;;;;;;;18.38;42.24;101494.19;5002402;28;20458;-80
2023/05/05 10:08:22;;;;;;;12.00;6.30;;;;;;;18.50;41.92;101495.00;5001743;28;20531;-80
2023/05/05 10:10:54;;;;;;;7.83;4.73;;;;;;;18.60;42.11;101492.53;4995533;28;20460;-79
2023/05/05 10:13:24;;;;;;;7.33;5.77;;;;;;;18.62;42.40;101484.91;5005301;28;20442;-79
2023/05/05 10:15:55;;;;;;;10.63;4.93;;;;;;;18.51;42.55;101482.97;5006748;28;20424;-79
2023/05/05 10:18:26;;;;;;;8.17;5.10;;;;;;;18.73;42.22;101487.88;5008981;28;20410;-79
2023/05/05 10:20:58;;;;;;;10.97;5.63;;;;;;;19.07;41.36;101490.50;4996655;28;20462;-79
2023/05/05 10:23:36;;;;;;;8.50;6.40;;;;;;;19.03;41.69;101477.50;5005387;28;20426;-81
2023/05/05 10:26:08;;;;;;;5.40;4.27;;;;;;;19.00;41.23;101475.25;5001964;28;20438;-79
2023/05/05 10:28:44;;;;;;;6.70;4.90;;;;;;;19.07;41.43;101473.22;4997363;28;20416;-78
2023/05/05 10:31:20;;;;;;;8.50;5.47;;;;;;;19.50;40.14;101476.28;5007421;28;20453;-78
2023/05/05 10:34:00;;;;;;;8.57;5.73;;;;;;;19.75;39.57;101467.63;5000178;28;20466;-78
2023/05/05 10:36:31;;;;;;;7.30;4.83;;;;;;;19.44;40.20;101466.28;5004713;28;20431;-78
2023/05/05 10:39:05;;;;;;;7.90;5.93;;;;;;;19.06;40.90;101463.31;5001513;28;20442;-80
2023/05/05 10:41:35;;;;;;;8.83;5.30;;;;;;;19.42;40.87;101476.63;4991687;28;20497;-79
2023/05/05 10:44:05;;;;;;;7.20;4.97;;;;;;;19.45;40.27;101467.94;5003682;28;20413;-79
2023/05/05 10:46:34;;;;;;;6.33;4.57;;;;;;;19.32;40.42;101459.97;5003405;28;20405;-79
2023/05/05 10:49:11;;;;;;;9.97;5.47;;;;;;;19.39;39.88;101468.06;4999563;28;20457;-79
2023/05/05 10:51:49;;;;;;;6.87;4.90;;;;;;;19.43;40.14;101475.53;4999938;28;20492;-79
2023/05/05 10:54:33;;;;;;;7.77;4.63;;;;;;;19.27;40.32;101462.63;5000104;28;20428;-78
2023/05/05 10:57:10;;;;;;;6.63;5.17;;;;;;;19.02;40.55;101460.25;5002145;28;20457;-77
2023/05/05 10:59:43;;;;;;;8.27;5.60;;;;;;;19.06;40.55;101471.56;5014619;28;20421;-77
2023/05/05 11:02:26;;;;;;;7.50;4.67;;;;;;;19.22;40.34;101451.53;4998488;28;20462;-80
2023/05/05 11:05:07;;;;;;;6.37;5.10;;;;;;;19.55;40.15;101455.47;4990441;28;20432;-78
2023/05/05 11:07:36;;;;;;;6.60;5.00;;;;;;;19.58;39.49;101447.56;5005798;28;20455;-80
2023/05/05 11:10:08;;;;;;;7.20;4.83;;;;;;;19.78;39.79;101438.84;4996988;28;20465;-78
2023/05/05 11:13:15;;;;;;;11.00;5.17;;;;;;;19.59;38.87;101451.97;4995643;28;20466;-79
2023/05/05 11:15:44;;;;;;;8.07;5.00;;;;;;;19.58;38.80;101449.47;4988691;28;20414;-79
2023/05/05 11:18:36;;;;;;;5.60;4.27;;;;;;;19.39;38.82;101435.97;4991678;28;20458;-80
2023/05/05 11:21:20;;;;;;;10.80;4.60;;;;;;;19.40;39.09;101437.63;5011617;28;20485;-80
2023/05/05 11:23:50;;;;;;;12.53;4.00;;;;;;;20.16;38.17;101433.38;4992698;28;20419;-80
2023/05/05 11:26:51;;;;;;;9.70;5.03;;;;;;;19.64;38.62;101438.34;4997526;28;20507;-81
2023/05/05 11:29:20;;;;;;;7.37;4.47;;;;;;;19.90;38.08;101434.06;4991968;28;20447;-80
2023/05/05 11:32:11;;;;;;;10.53;5.30;;;;;;;20.34;36.77;101427.63;4994284;28;20467;-81
2023/05/05 11:34:49;;;;;;;7.00;4.90;;;;;;;20.12;37.52;101424.00;4990930;28;20440;-80
2023/05/05 11:37:22;;;;;;;10.30;4.80;;;;;;;20.47;37.35;101418.19;4995148;28;20448;-79
2023/05/05 11:40:03;;;;;;;6.87;4.27;;;;;;;20.41;37.27;101404.63;4997311;28;20421;-80
2023/05/05 11:42:36;;;;;;;7.80;4.80;;;;;;;20.84;37.07;101415.63;5003459;28;20539;-81
2023/05/05 11:45:22;;;;;;;7.73;4.20;;;;;;;21.36;35.22;101401.31;5003371;28;20460;-80
2023/05/05 11:47:51;;;;;;;11.10;4.87;;;;;;;20.80;35.35;101409.81;5005947;28;20475;-80